Time;durP1;ratioP1;P1;durP2;ratioP2;P2;SDS_P1;SDS_P2;PMS_P1;PMS_P2;Temp;Humidity;BMP_temperature;BMP_pressure;BME280_temperature;BME280_humidity;BME280_pressure;Samples;Min_cycle;Max_cycle;Signal;HPM_P1;HPM_P2
2021/06/09 00:00:54;;;;;;;4.55;4.15;;;19.30;99.90;;;18.73;76.20;100698.50;5007912;28;20548;-55
2021/06/09 00:03:21;;;;;;;7.75;3.60;;;19.20;99.90;;;18.65;76.56;100702.09;5029451;28;20132;-56
2021/06/09 00:05:48;;;;;;;5.07;3.42;;;19.20;99.90;;;18.58;76.67;100695.91;5007590;28;20351;-59
2021/06/09 00:08:15;;;;;;;4.60;3.50;;;19.10;99.90;;;18.62;75.97;100697.19;5006214;28;20037;-59
2021/06/09 00:10:41;;;;;;;5.22;3.67;;;19.10;99.90;;;18.66;75.81;100702.91;5005086;28;20089;-58
2021/06/09 00:13:08;;;;;;;6.75;3.65;;;19.10;99.90;;;18.60;76.37;100695.72;5009994;28;20368;-58
2021/06/09 00:15:35;;;;;;;5.13;3.75;;;19.10;99.90;;;18.52;76.73;100694.03;5015206;28;20029;-60
2021/06/09 00:18:01;;;;;;;3.90;3.60;;;19.00;99.90;;;18.46;77.04;100697.41;5014935;28;20509;-54
2021/06/09 00:20:28;;;;;;;4.32;3.33;;;19.00;99.90;;;18.43;77.06;100695.97;5009970;28;20048;-59
2021/06/09 00:22:56;;;;;;;4.57;3.70;;;18.90;99.90;;;18.41;77.42;100698.00;5010057;28;20061;-54
2021/06/09 00:25:23;;;;;;;5.13;3.40;;;18.90;99.90;;;18.42;77.05;100707.56;5013081;28;20037;-58
2021/06/09 00:27:54;;;;;;;4.10;3.70;;;18.90;99.90;;;18.42;78.00;100696.19;5012517;28;20633;-58
2021/06/09 00:30:31;;;;;;;4.70;4.03;;;18.90;99.90;;;18.34;78.57;100705.06;5023253;28;20037;-55
2021/06/09 00:32:58;;;;;;;3.67;3.38;;;18.90;99.90;;;18.29;78.00;100696.06;5031001;28;20029;-60
2021/06/09 00:35:24;;;;;;;3.65;3.30;;;18.80;99.90;;;18.22;78.39;100699.47;5014229;28;20568;-56
2021/06/09 00:37:51;;;;;;;4.25;2.88;;;18.70;99.90;;;18.22;78.40;100706.56;5010004;28;20516;-58
2021/06/09 00:40:18;;;;;;;4.18;3.78;;;18.70;99.90;;;18.27;78.03;100706.81;5014385;28;20025;-54
2021/06/09 00:43:21;;;;;;;5.32;3.25;;;18.70;99.90;;;18.36;78.36;100696.94;5013484;28;20056;-53
2021/06/09 00:46:04;;;;;;;4.75;3.63;;;18.80;99.90;;;18.30;78.07;100690.59;4961599;28;20058;-56
2021/06/09 00:48:32;;;;;;;5.72;3.40;;;18.80;99.90;;;18.31;77.52;100688.78;4964288;28;20054;-54
2021/06/09 00:51:03;;;;;;;4.68;3.50;;;18.80;99.90;;;18.41;76.90;100689.28;4969130;28;20043;-56
2021/06/09 00:53:34;;;;;;;4.40;3.03;;;18.90;99.90;;;18.41;76.97;100691.94;4945874;28;20254;-54
2021/06/09 00:56:12;;;;;;;3.70;3.15;;;18.90;99.90;;;18.48;76.52;100696.22;4967393;28;20510;-55
2021/06/09 00:58:43;;;;;;;5.10;3.55;;;18.90;99.90;;;18.56;75.75;100693.44;4966652;28;20043;-56
2021/06/09 01:01:12;;;;;;;4.53;4.22;;;19.00;99.90;;;18.56;75.51;100693.44;4965941;28;20051;-54
2021/06/09 01:03:39;;;;;;;5.18;3.60;;;19.00;99.90;;;18.54;75.72;100699.94;4952247;28;20046;-55
2021/06/09 01:06:06;;;;;;;7.25;3.75;;;19.00;99.90;;;18.42;76.65;100696.19;4957098;28;20534;-57
2021/06/09 01:08:36;;;;;;;4.20;3.80;;;19.00;99.90;;;18.32;76.99;100695.69;4965895;28;20066;-55
2021/06/09 01:11:09;;;;;;;3.45;3.15;;;18.90;99.90;;;18.32;76.87;100693.06;4968611;28;20043;-57
2021/06/09 01:13:36;;;;;;;5.35;3.50;;;18.80;99.90;;;18.37;76.21;100693.31;4970626;28;20051;-55
2021/06/09 01:16:02;;;;;;;3.65;3.35;;;18.90;99.90;;;18.55;74.68;100691.00;4969984;28;20415;-60
2021/06/09 01:18:28;;;;;;;4.35;2.80;;;18.90;99.90;;;18.76;73.39;100690.19;4968196;28;20189;-57
2021/06/09 01:20:57;;;;;;;4.65;3.45;;;19.10;99.90;;;18.69;73.33;100698.06;5001268;28;20052;-59
2021/06/09 01:23:24;;;;;;;5.07;3.20;;;19.20;99.90;;;18.73;73.25;100696.66;5039932;28;20370;-59
2021/06/09 01:25:50;;;;;;;4.32;2.90;;;19.20;99.90;;;18.61;73.66;100686.81;5020304;28;20191;-58
2021/06/09 01:28:17;;;;;;;4.20;3.13;;;19.10;99.90;;;18.52;73.83;100686.09;5012643;28;20081;-55
2021/06/09 01:30:44;;;;;;;5.63;2.72;;;19.00;99.90;;;18.50;73.57;100693.41;5008498;28;20201;-57
2021/06/09 01:33:11;;;;;;;4.90;3.35;;;19.00;99.90;;;18.46;73.55;100686.88;5008619;28;20483;-60
2021/06/09 01:35:37;;;;;;;7.53;3.58;;;19.00;99.90;;;18.40;73.41;100696.38;5009053;28;20552;-55
2021/06/09 01:38:06;;;;;;;5.10;3.40;;;18.90;99.90;;;18.35;74.02;100685.59;5008694;28;20040;-53
2021/06/09 01:40:33;;;;;;;4.68;3.40;;;18.90;99.90;;;18.22;74.46;100683.63;5023989;28;20121;-55
2021/06/09 01:42:59;;;;;;;5.18;3.72;;;18.80;99.90;;;18.19;74.69;100686.66;5022152;28;20076;-50
2021/06/09 01:45:29;;;;;;;5.60;3.40;;;18.70;99.90;;;18.13;74.93;100686.59;5023452;28;20368;-60
2021/06/09 01:47:55;;;;;;;5.57;3.85;;;18.60;99.90;;;18.04;75.89;100685.88;5018470;28;20133;-58
2021/06/09 01:50:23;;;;;;;4.70;3.70;;;18.60;99.90;;;17.94;76.47;100682.75;5007885;28;20037;-58
2021/06/09 01:52:51;;;;;;;4.78;4.05;;;18.50;99.90;;;17.93;76.58;100682.94;5011226;28;20030;-59
2021/06/09 01:55:21;;;;;;;7.18;3.58;;;18.40;99.90;;;17.94;76.32;100677.50;5009507;28;20026;-60
2021/06/09 01:57:48;;;;;;;3.72;3.40;;;18.40;99.90;;;17.98;75.90;100677.91;5010593;28;20043;-57
2021/06/09 02:00:24;;;;;;;7.20;3.40;;;18.40;99.90;;;17.97;76.19;100681.53;5007747;28;20076;-57
2021/06/09 02:02:58;;;;;;;3.55;2.65;;;18.50;99.90;;;17.97;76.12;100682.38;5018046;28;20224;-58
2021/06/09 02:05:27;;;;;;;5.72;3.50;;;18.50;99.90;;;17.90;76.26;100687.59;5008604;28;20034;-59
2021/06/09 02:07:56;;;;;;;5.57;3.55;;;18.40;99.90;;;17.89;76.87;100693.06;5009143;28;20494;-52
2021/06/09 02:10:23;;;;;;;4.55;4.10;;;18.40;99.90;;;17.80;77.08;100692.34;5013102;28;20194;-58
2021/06/09 02:12:56;;;;;;;3.95;3.55;;;18.30;99.90;;;17.76;77.77;100691.06;5016007;28;20569;-56
2021/06/09 02:15:24;;;;;;;4.93;3.85;;;18.30;99.90;;;17.80;77.10;100686.25;5008550;28;20061;-56
2021/06/09 02:18:08;;;;;;;4.07;3.67;;;18.20;99.90;;;17.67;77.95;100694.00;5013142;28;20033;-56
2021/06/09 02:20:40;;;;;;;7.30;3.75;;;18.20;99.90;;;17.64;78.21;100686.44;5011587;28;20100;-55
2021/06/09 02:23:12;;;;;;;4.90;3.50;;;18.10;99.90;;;17.61;78.10;100686.81;5015251;28;20503;-56
2021/06/09 02:25:44;;;;;;;4.00;3.70;;;18.10;99.90;;;17.65;78.25;100683.66;5014886;28;20470;-57
2021/06/09 02:28:11;;;;;;;6.93;4.28;;;18.10;99.90;;;17.58;78.03;100694.06;5009531;28;20037;-58
2021/06/09 02:30:40;;;;;;;4.68;4.03;;;18.10;99.90;;;17.48;78.51;100698.84;5028598;28;20034;-57
2021/06/09 02:33:06;;;;;;;4.05;3.65;;;18.00;99.90;;;17.41;79.02;100690.03;5023652;28;20061;-58
2021/06/09 02:35:38;;;;;;;6.15;4.30;;;18.00;99.90;;;17.34;80.32;100698.84;5014309;28;20362;-58
2021/06/09 02:38:06;;;;;;;5.22;3.83;;;17.90;99.90;;;17.36;79.08;100697.66;5006906;28;20041;-57
2021/06/09 02:40:34;;;;;;;4.22;3.78;;;17.90;99.90;;;17.39;78.67;100699.94;5006104;28;20033;-61
2021/06/09 02:43:00;;;;;;;5.70;3.80;;;17.90;99.90;;;17.48;78.45;100698.84;5016077;28;20050;-53
2021/06/09 02:45:27;;;;;;;6.80;3.67;;;17.90;99.90;;;17.52;77.94;100699.25;5008749;28;20034;-58
2021/06/09 02:48:04;;;;;;;3.78;3.47;;;18.00;99.90;;;17.51;77.84;100701.06;5014754;28;20844;-57
2021/06/09 02:50:31;;;;;;;3.50;3.30;;;18.00;99.90;;;17.53;77.73;100708.78;5013625;28;20493;-54
2021/06/09 02:53:27;;;;;;;4.78;3.90;;;18.00;99.90;;;17.51;78.11;100697.63;5005800;28;20034;-55
2021/06/09 02:56:24;;;;;;;3.80;3.50;;;18.00;99.90;;;17.49;78.45;100703.06;5015843;28;20064;-56
2021/06/09 02:59:18;;;;;;;4.22;3.40;;;18.00;99.90;;;17.40;79.09;100701.56;5202878;23;20342;-59
2021/06/09 03:02:06;;;;;;;3.67;3.38;;;17.90;99.90;;;17.34;79.01;100697.03;5032893;28;20041;-59
2021/06/09 03:05:03;;;;;;;6.45;3.97;;;17.90;99.90;;;17.37;78.71;100693.22;5033115;28;20064;-54
2021/06/09 03:07:44;;;;;;;4.85;3.58;;;17.80;99.90;;;17.44;77.89;100689.66;5038564;28;20091;-57
2021/06/09 03:10:27;;;;;;;3.95;3.55;;;17.90;99.90;;;17.51;77.36;100697.63;5033908;28;20041;-58
2021/06/09 03:13:05;;;;;;;4.72;3.30;;;18.00;99.90;;;17.52;77.44;100688.72;5044504;28;20029;-57
2021/06/09 03:15:58;;;;;;;3.97;3.30;;;18.00;99.90;;;17.49;77.48;100689.91;5041042;28;20164;-53
2021/06/09 03:18:30;;;;;;;4.20;3.80;;;18.00;99.90;;;17.28;78.37;100687.22;5027367;28;20366;-57
2021/06/09 03:21:03;;;;;;;4.60;4.03;;;17.90;99.90;;;17.28;78.36;100694.31;5037753;28;20041;-58
2021/06/09 03:23:42;;;;;;;6.50;4.40;;;17.80;99.90;;;17.15;79.32;100687.84;5027997;28;20390;-60
2021/06/09 03:26:32;;;;;;;4.22;3.72;;;17.80;99.90;;;17.12;79.68;100693.47;5026844;28;20041;-56
2021/06/09 03:29:35;;;;;;;7.90;4.57;;;17.70;99.90;;;17.07;80.56;100692.38;5026480;28;20578;-56
2021/06/09 03:32:08;;;;;;;4.57;4.13;;;17.60;99.90;;;17.01;79.97;100691.31;5037179;28;20041;-56
2021/06/09 03:34:50;;;;;;;3.80;3.47;;;17.60;99.90;;;17.02;80.27;100692.09;5012794;28;20033;-55
2021/06/09 03:37:20;;;;;;;7.57;4.50;;;17.60;99.90;;;17.13;79.32;100694.28;5027525;28;20037;-59
2021/06/09 03:39:51;;;;;;;5.93;3.60;;;17.60;99.90;;;17.24;78.97;100697.31;5026607;28;20095;-58
2021/06/09 03:42:20;;;;;;;7.57;3.80;;;17.70;99.90;;;17.21;78.96;100692.41;5026115;28;20083;-58
2021/06/09 03:44:53;;;;;;;4.00;3.55;;;17.80;99.90;;;17.17;79.33;100685.03;5025096;28;20108;-54
2021/06/09 03:47:21;;;;;;;5.38;4.03;;;17.70;99.90;;;17.12;79.80;100688.22;5025625;28;20044;-58
2021/06/09 03:49:48;;;;;;;5.20;4.00;;;17.70;99.90;;;17.15;79.63;100689.66;5024153;28;20037;-57
2021/06/09 03:52:16;;;;;;;4.95;3.92;;;17.70;99.90;;;17.16;79.47;100694.75;5027498;28;20079;-55
2021/06/09 03:54:48;;;;;;;4.60;4.20;;;17.70;99.90;;;17.29;79.06;100688.84;5026555;28;20065;-60
2021/06/09 03:57:16;;;;;;;6.63;3.72;;;17.80;99.90;;;17.44;78.20;100697.56;5027463;28;20130;-55
2021/06/09 03:59:46;;;;;;;3.95;3.45;;;18.00;99.90;;;17.50;78.34;100690.72;5024839;28;20368;-58
2021/06/09 04:02:13;;;;;;;5.47;3.40;;;18.10;99.90;;;17.47;78.31;100691.13;5025780;28;20049;-58
2021/06/09 04:04:40;;;;;;;9.82;3.67;;;18.10;99.90;;;17.75;77.74;100688.63;5028264;28;20034;-58
2021/06/09 04:07:08;;;;;;;6.22;3.30;;;18.30;99.90;;;18.62;75.08;100686.63;5047631;28;20036;-57
2021/06/09 04:09:35;;;;;;;5.93;2.78;;;19.30;99.90;;;19.43;72.39;100678.97;5030960;28;20037;-61
2021/06/09 04:12:04;;;;;;;4.22;2.90;;;20.40;99.90;;;20.32;69.26;100684.09;5028750;28;20044;-58
2021/06/09 04:14:46;;;;;;;4.07;2.85;;;21.60;99.90;;;21.42;66.38;100686.81;5037362;28;20037;-62
2021/06/09 04:17:17;;;;;;;4.45;2.70;;;22.80;99.90;;;22.14;62.86;100675.03;5027477;28;20118;-59
2021/06/09 04:19:47;;;;;;;4.13;2.35;;;23.80;99.30;;;22.99;60.35;100671.84;5029326;28;20471;-55
2021/06/09 04:22:13;;;;;;;5.15;2.30;;;24.70;96.60;;;23.05;59.64;100671.75;5045592;28;20115;-55
2021/06/09 04:24:40;;;;;;;4.63;2.47;;;25.20;92.60;;;23.33;58.30;100670.41;5034373;28;20041;-58
2021/06/09 04:27:13;;;;;;;5.60;2.22;;;25.20;92.10;;;24.23;56.21;100665.88;5034707;28;20531;-49
2021/06/09 04:29:39;;;;;;;4.03;2.05;;;26.20;90.20;;;25.08;53.78;100676.09;5028299;28;20026;-55
2021/06/09 04:32:09;;;;;;;4.43;1.92;;;27.40;83.60;;;25.84;51.43;100671.47;5045653;28;20032;-59
2021/06/09 04:35:07;;;;;;;2.47;1.67;;;28.30;77.30;;;25.54;48.59;100672.50;5037290;28;20125;-54
2021/06/09 04:37:32;;;;;;;6.75;2.00;;;28.40;69.10;;;25.44;50.24;100670.47;5021644;28;20140;-56
2021/06/09 04:39:58;;;;;;;5.05;2.13;;;28.10;69.40;;;25.10;51.00;100674.03;5027290;28;20128;-55
2021/06/09 04:42:25;;;;;;;2.50;2.30;;;27.50;71.40;;;25.10;49.71;100674.03;5033114;28;20654;-60
2021/06/09 04:44:51;;;;;;;7.32;3.75;;;27.60;67.50;;;25.19;50.07;100667.28;5038479;28;20509;-57
2021/06/09 04:47:17;;;;;;;3.15;2.83;;;27.50;69.90;;;25.15;50.09;100666.13;5029741;28;20056;-56
2021/06/09 04:49:45;;;;;;;4.05;2.10;;;27.80;68.60;;;24.94;49.81;100670.22;5038797;28;20065;-57
2021/06/09 04:52:13;;;;;;;2.22;1.98;;;27.60;66.60;;;24.73;51.11;100668.13;5007502;28;20129;-56
2021/06/09 04:54:40;;;;;;;3.25;1.83;;;27.10;68.70;;;25.29;49.58;100662.16;5008695;28;20069;-58
2021/06/09 04:57:07;;;;;;;2.33;1.70;;;27.50;68.10;;;25.28;49.48;100659.72;5027164;28;20038;-51
2021/06/09 04:59:34;;;;;;;3.88;2.17;;;27.90;66.70;;;26.12;47.99;100661.56;5043932;28;20631;-56
2021/06/09 05:02:00;;;;;;;4.55;1.90;;;28.60;65.60;;;26.32;46.63;100661.13;5032418;28;20120;-57
2021/06/09 05:04:26;;;;;;;2.80;1.75;;;28.90;62.70;;;26.24;46.61;100658.00;5028936;28;20044;-52
2021/06/09 05:06:52;;;;;;;2.05;1.58;;;28.80;62.60;;;26.59;45.95;100657.75;5030096;28;20083;-55
2021/06/09 05:09:18;;;;;;;6.53;1.98;;;29.20;61.70;;;26.87;45.50;100664.84;5028988;28;20481;-59
2021/06/09 05:12:19;;;;;;;1.95;1.73;;;29.70;61.00;;;27.28;43.43;100658.97;5030429;28;20142;-60
2021/06/09 05:15:11;;;;;;;4.60;1.83;;;30.40;57.60;;;27.22;43.13;100667.97;5029366;28;20567;-61
2021/06/09 05:17:49;;;;;;;2.70;1.50;;;30.40;57.20;;;26.98;43.97;100655.91;5009088;28;20072;-59
2021/06/09 05:20:28;;;;;;;4.15;1.90;;;30.20;57.10;;;27.34;43.34;100655.28;5020877;28;20045;-55
2021/06/09 05:23:29;;;;;;;4.40;2.10;;;30.20;57.00;;;27.95;41.83;100657.78;5044134;28;20119;-45
2021/06/09 05:25:58;;;;;;;3.45;1.60;;;31.10;55.60;;;27.42;43.95;100659.34;5016927;28;20501;-52
2021/06/09 05:28:29;;;;;;;3.10;2.03;;;30.80;55.80;;;26.86;43.59;100664.03;5028077;28;20033;-54
2021/06/09 05:30:58;;;;;;;3.33;1.60;;;30.20;56.70;;;26.50;44.62;100662.69;5030441;28;20037;-49
2021/06/09 05:33:25;;;;;;;3.72;1.65;;;29.40;57.40;;;26.23;45.78;100667.06;5029598;28;20112;-53
2021/06/09 05:35:56;;;;;;;7.05;1.90;;;29.10;58.20;;;26.09;45.23;100674.56;5028526;28;20036;-52
2021/06/09 05:38:24;;;;;;;3.22;2.20;;;28.80;58.10;;;26.15;46.27;100657.59;5029689;28;20048;-56
2021/06/09 05:40:51;;;;;;;3.00;2.33;;;28.80;59.60;;;26.64;44.55;100668.50;5047737;28;20037;-56
2021/06/09 05:43:23;;;;;;;4.68;2.03;;;29.50;57.40;;;26.39;44.52;100666.28;5032600;28;20152;-52
2021/06/09 05:45:51;;;;;;;4.63;1.70;;;29.30;57.50;;;26.64;44.69;100666.66;5029615;28;20476;-52
2021/06/09 05:48:18;;;;;;;6.43;1.77;;;29.20;58.00;;;26.24;45.84;100664.16;5028718;28;20415;-56
2021/06/09 05:50:55;;;;;;;3.38;1.55;;;28.90;58.60;;;26.04;45.63;100666.47;5027651;28;20110;-57
2021/06/09 05:53:26;;;;;;;2.85;1.45;;;28.70;58.90;;;26.11;45.37;100670.63;5029157;28;20029;-59
2021/06/09 05:55:54;;;;;;;2.55;1.38;;;28.40;59.20;;;26.64;44.68;100663.97;5029463;28;20033;-56
2021/06/09 05:58:24;;;;;;;8.75;1.73;;;28.90;58.90;;;26.20;45.48;100671.03;5044931;28;20037;-56
2021/06/09 06:00:58;;;;;;;2.30;1.48;;;28.80;58.50;;;26.58;43.96;100669.50;5029143;28;20103;-58
2021/06/09 06:03:25;;;;;;;3.08;1.75;;;29.20;57.40;;;26.38;44.88;100662.81;5029290;28;20034;-52
2021/06/09 06:06:01;;;;;;;2.55;2.35;;;29.10;58.20;;;26.08;45.89;100668.44;5029461;28;20044;-51
2021/06/09 06:08:31;;;;;;;2.38;1.65;;;28.60;59.20;;;26.09;46.05;100666.56;5029479;28;20036;-55
2021/06/09 06:11:05;;;;;;;5.50;1.67;;;28.60;59.50;;;26.15;45.21;100664.78;5029047;28;20033;-57
2021/06/09 06:13:31;;;;;;;4.25;1.65;;;28.70;58.90;;;26.72;44.68;100671.59;5029001;28;20088;-57
2021/06/09 06:15:58;;;;;;;4.00;1.70;;;29.10;58.30;;;26.44;45.45;100667.19;5029487;28;20045;-52
2021/06/09 06:18:35;;;;;;;2.85;1.67;;;29.10;58.60;;;26.60;44.73;100676.22;5029275;28;20045;-56
2021/06/09 06:21:10;;;;;;;3.65;1.70;;;29.20;58.40;;;26.71;45.66;100672.63;5029318;28;20025;-60
2021/06/09 06:23:38;;;;;;;;;;;29.20;58.70;;;26.40;45.30;100673.25;5029624;28;20064;-55
2021/06/09 06:26:04;;;;;;;3.78;1.55;;;29.00;58.70;;;26.66;45.69;100680.56;5028266;28;20546;-54
2021/06/09 06:28:32;;;;;;;2.60;1.20;;;29.10;59.00;;;26.28;46.33;100675.16;5027701;28;20045;-60
2021/06/09 06:31:00;;;;;;;4.80;1.60;;;28.90;59.50;;;26.30;46.83;100679.22;5011190;28;20069;-57
2021/06/09 06:33:28;;;;;;;4.57;1.55;;;28.70;60.00;;;26.56;46.06;100674.28;5027850;28;20026;-57
2021/06/09 06:35:58;;;;;;;3.33;1.48;;;28.90;59.80;;;26.54;45.43;100685.19;5029315;28;20041;-58
2021/06/09 06:38:25;;;;;;;3.08;1.75;;;29.20;58.40;;;26.63;45.93;100691.75;5027684;28;20034;-56
2021/06/09 06:40:51;;;;;;;3.00;1.85;;;29.10;59.30;;;26.66;46.21;100683.25;5029095;28;20083;-59
2021/06/09 06:43:17;;;;;;;2.45;1.90;;;29.20;59.20;;;26.68;46.29;100675.00;5027700;28;20108;-54
2021/06/09 06:45:44;;;;;;;7.47;2.10;;;29.40;59.20;;;26.98;45.74;100680.78;5029113;28;20044;-58
2021/06/09 06:48:11;;;;;;;2.70;1.35;;;29.80;58.60;;;27.26;45.36;100679.00;5027641;28;20037;-59
2021/06/09 06:50:38;;;;;;;3.83;1.98;;;30.20;58.00;;;28.12;42.85;100676.41;5027665;28;20029;-55
2021/06/09 06:53:08;;;;;;;3.05;2.33;;;31.10;55.80;;;28.07;42.38;100679.84;5028809;28;20025;-53
2021/06/09 06:55:35;;;;;;;4.75;1.35;;;31.00;55.50;;;28.20;42.96;100673.25;5028704;28;20038;-61
2021/06/09 06:58:01;;;;;;;3.35;1.67;;;31.20;56.20;;;28.94;41.16;100678.59;5028995;28;20076;-57
2021/06/09 07:00:28;;;;;;;3.92;1.60;;;32.20;54.10;;;28.77;40.96;100686.00;5028572;28;20041;-59
2021/06/09 07:02:57;;;;;;;1.60;1.50;;;32.30;53.20;;;28.96;40.17;100684.50;5028632;28;20068;-58
2021/06/09 07:05:29;;;;;;;3.80;1.88;;;32.30;52.30;;;28.78;40.25;100690.31;5026898;28;20026;-60
2021/06/09 07:07:56;;;;;;;5.15;2.13;;;31.90;52.90;;;28.84;39.69;100691.94;5027380;28;20025;-60
2021/06/09 07:10:23;;;;;;;2.25;2.10;;;31.70;53.00;;;28.14;41.38;100683.13;5027237;28;20556;-61
2021/06/09 07:12:49;;;;;;;4.70;2.45;;;30.00;57.20;;;27.88;41.40;100687.44;5027208;28;20124;-58
2021/06/09 07:15:19;;;;;;;2.38;2.10;;;29.10;58.00;;;27.69;41.82;100688.84;5028699;28;20044;-58
2021/06/09 07:17:53;;;;;;;3.60;2.28;;;28.40;59.50;;;27.55;41.84;100693.75;5028859;28;20044;-58
2021/06/09 07:20:25;;;;;;;2.60;2.03;;;28.20;59.90;;;27.72;42.33;100691.03;5028894;28;20472;-56
2021/06/09 07:22:53;;;;;;;2.92;1.92;;;28.20;60.80;;;27.74;42.21;100683.56;5027694;28;20437;-56
2021/06/09 07:25:20;;;;;;;2.55;2.15;;;28.30;60.50;;;27.33;42.67;100690.31;5028314;28;20388;-60
2021/06/09 07:27:52;;;;;;;5.30;1.88;;;28.10;60.10;;;27.47;42.48;100691.53;5026899;28;20133;-59
2021/06/09 07:30:23;;;;;;;1.77;1.67;;;28.10;60.80;;;28.13;41.31;100686.06;5028635;28;20042;-58
2021/06/09 07:32:49;;;;;;;5.50;2.13;;;28.50;60.30;;;28.34;41.09;100685.19;5028580;28;20056;-58
2021/06/09 07:35:17;;;;;;;2.95;2.28;;;28.90;59.70;;;28.66;40.74;100685.94;5028057;28;20057;-59
2021/06/09 07:37:54;;;;;;;5.00;1.80;;;29.30;59.60;;;29.12;40.44;100693.44;5026911;28;20120;-59
2021/06/09 07:40:25;;;;;;;7.45;2.40;;;29.60;59.70;;;29.70;39.46;100700.38;5028375;28;20083;-58
2021/06/09 07:43:01;;;;;;;2.70;2.22;;;30.10;59.10;;;29.24;40.06;100696.72;5028483;28;20633;-59
2021/06/09 07:45:29;;;;;;;4.63;2.05;;;30.10;58.50;;;29.38;41.10;100697.81;5027970;28;20037;-57
2021/06/09 07:47:57;;;;;;;3.10;2.35;;;30.00;59.60;;;29.56;41.37;100704.63;5026887;28;20068;-60
2021/06/09 07:50:47;;;;;;;3.58;2.05;;;30.10;60.40;;;29.95;40.61;100696.91;5026791;28;20038;-57
2021/06/09 07:53:14;;;;;;;4.80;1.90;;;30.60;60.10;;;29.70;41.17;100697.69;5028243;28;20104;-56
2021/06/09 07:55:46;;;;;;;5.13;2.25;;;30.60;59.40;;;29.56;40.10;100700.06;5027982;28;20048;-59
2021/06/09 07:58:15;;;;;;;4.63;2.15;;;30.50;58.70;;;28.74;42.54;100692.69;5043268;28;20052;-57
2021/06/09 08:00:42;;;;;;;5.03;1.85;;;29.80;60.20;;;28.36;43.40;100691.88;5027814;28;20513;-54
2021/06/09 08:03:09;;;;;;;6.28;2.67;;;29.50;60.80;;;27.99;44.42;100694.50;5026826;28;20043;-56
2021/06/09 08:05:37;;;;;;;5.18;2.20;;;28.90;62.60;;;28.28;43.18;100691.56;5028312;28;20033;-52
2021/06/09 08:08:04;;;;;;;2.60;2.35;;;28.90;61.30;;;28.90;42.15;100697.09;5027743;28;20041;-60
2021/06/09 08:10:31;;;;;;;4.40;2.20;;;29.20;61.90;;;29.15;41.17;100688.38;5028105;28;20101;-55
2021/06/09 08:12:57;;;;;;;2.60;2.40;;;29.60;60.40;;;28.79;41.64;100692.72;5028036;28;20045;-57
2021/06/09 08:15:23;;;;;;;4.68;2.58;;;29.50;60.40;;;29.61;40.41;100686.66;5028044;28;20063;-54
2021/06/09 08:17:50;;;;;;;4.80;2.58;;;29.90;60.50;;;30.01;39.81;100685.13;5027754;28;20384;-53
2021/06/09 08:20:20;;;;;;;4.38;2.17;;;30.50;59.30;;;30.41;39.04;100687.00;5027757;28;20073;-56
2021/06/09 08:22:46;;;;;;;7.38;2.42;;;30.80;58.70;;;30.24;38.25;100683.78;5027627;28;20029;-58
2021/06/09 08:25:16;;;;;;;3.05;1.70;;;30.80;57.10;;;29.89;37.85;100681.84;5027530;28;20125;-62
2021/06/09 08:27:43;;;;;;;3.38;2.28;;;30.70;56.50;;;29.79;38.47;100677.28;5010233;28;20519;-60
2021/06/09 08:30:10;;;;;;;3.72;2.13;;;30.40;57.00;;;30.16;37.31;100678.97;5027811;28;20041;-57
2021/06/09 08:32:36;;;;;;;3.38;2.30;;;30.60;55.90;;;29.75;37.80;100676.22;5028249;28;20080;-56
2021/06/09 08:35:06;;;;;;;3.00;2.65;;;30.30;56.10;;;30.02;36.26;100682.16;5031754;28;20144;-57
2021/06/09 08:37:32;;;;;;;4.18;2.95;;;30.60;54.70;;;29.51;36.93;100669.72;5031432;28;20387;-56
2021/06/09 08:39:57;;;;;;;4.93;2.42;;;30.30;54.70;;;29.73;36.58;100674.88;5031369;28;20087;-58
2021/06/09 08:42:26;;;;;;;6.85;3.13;;;30.20;55.10;;;29.89;35.59;100681.84;5031686;28;20116;-58
2021/06/09 08:44:53;;;;;;;2.40;2.20;;;30.40;54.00;;;30.11;34.87;100673.59;5031126;28;20388;-58
2021/06/09 08:47:25;;;;;;;3.70;2.20;;;30.40;53.10;;;30.21;34.66;100681.66;5031027;28;20029;-56
2021/06/09 08:49:53;;;;;;;3.28;2.95;;;30.50;53.60;;;29.96;35.33;100680.53;5029580;28;20683;-56
2021/06/09 08:52:21;;;;;;;3.53;2.22;;;30.50;53.70;;;30.31;35.09;100687.00;5029680;28;20034;-55
2021/06/09 08:54:48;;;;;;;6.10;2.67;;;30.60;54.10;;;30.80;34.49;100676.44;5031080;28;20036;-60
2021/06/09 08:57:16;;;;;;;3.10;2.15;;;31.00;54.10;;;31.44;33.83;100674.84;5031061;28;20030;-59
2021/06/09 08:59:44;;;;;;;4.00;2.60;;;31.70;53.20;;;31.32;33.58;100678.69;5031079;28;20041;-57
2021/06/09 09:02:12;;;;;;;6.65;2.40;;;31.80;52.10;;;31.72;33.10;100676.84;5029260;28;20081;-57
2021/06/09 09:04:40;;;;;;;2.80;2.60;;;32.00;52.40;;;32.09;32.90;100673.63;5030707;28;20099;-58
2021/06/09 09:07:11;;;;;;;2.35;2.15;;;32.30;52.10;;;32.32;32.03;100669.41;5030857;28;20089;-57
2021/06/09 09:09:38;;;;;;;3.65;2.42;;;32.60;51.60;;;32.43;32.16;100672.81;5029146;28;20128;-57
2021/06/09 09:12:06;;;;;;;4.13;1.75;;;32.70;50.80;;;32.43;31.43;100676.31;5031161;28;20386;-59
2021/06/09 09:14:32;;;;;;;3.83;2.40;;;33.00;50.00;;;31.89;32.43;100674.59;5030676;28;20120;-56
2021/06/09 09:17:11;;;;;;;2.83;2.55;;;32.60;50.30;;;31.23;32.96;100677.66;5030602;28;20531;-57
2021/06/09 09:19:41;;;;;;;4.15;2.33;;;32.20;50.20;;;31.69;31.99;100677.41;5030898;28;20102;-57
2021/06/09 09:22:17;;;;;;;3.20;2.28;;;32.10;50.30;;;32.52;29.94;100674.59;5030522;28;20040;-57
2021/06/09 09:24:49;;;;;;;3.00;2.33;;;32.70;48.90;;;33.47;29.97;100678.34;5030510;28;20041;-56
2021/06/09 09:27:27;;;;;;;3.58;2.30;;;33.50;49.30;;;33.17;30.55;100669.53;5030447;28;20030;-56
2021/06/09 09:30:14;;;;;;;5.00;2.20;;;33.80;49.00;;;32.44;29.87;100675.22;5030621;28;20851;-61
2021/06/09 09:33:06;;;;;;;2.65;2.45;;;33.30;47.30;;;32.12;28.27;100675.75;5030744;28;20502;-57
2021/06/09 09:35:38;;;;;;;5.75;2.97;;;33.20;45.80;;;32.88;29.47;100672.34;5030154;28;20045;-60
2021/06/09 09:40:57;;;;;;;2.45;2.25;;;33.50;46.20;;;33.18;29.12;100660.34;5033445;22;20436;-56
2021/06/09 09:44:19;;;;;;;2.92;2.55;;;33.80;46.90;;;33.42;28.16;100667.63;5030398;28;20049;-58
2021/06/09 09:46:54;;;;;;;2.95;2.20;;;33.80;46.40;;;33.77;29.61;100667.09;5012708;28;20045;-58
2021/06/09 09:49:20;;;;;;;2.95;2.72;;;34.00;48.30;;;34.01;29.47;100663.50;5028795;28;20496;-60
2021/06/09 09:51:51;;;;;;;4.68;2.78;;;34.30;48.20;;;33.49;30.12;100668.06;5030125;28;20515;-55
2021/06/09 09:54:39;;;;;;;2.97;2.67;;;34.10;48.10;;;33.33;29.57;100666.66;5028307;28;20049;-57
2021/06/09 09:57:09;;;;;;;3.25;2.60;;;34.00;47.50;;;33.91;29.51;100673.38;5029873;28;20049;-59
2021/06/09 09:59:35;;;;;;;5.00;2.10;;;34.20;48.30;;;33.90;29.48;100670.97;5028207;28;20643;-57
2021/06/09 10:02:04;;;;;;;3.65;3.10;;;34.30;47.50;;;33.91;28.80;100665.28;5029723;28;20059;-57
2021/06/09 10:04:37;;;;;;;5.45;2.63;;;34.40;47.10;;;33.93;28.87;100673.09;5028244;28;20056;-56
2021/06/09 10:07:10;;;;;;;3.13;2.92;;;34.40;47.30;;;33.24;28.87;100669.97;5029567;28;20142;-57
2021/06/09 10:09:42;;;;;;;4.95;2.95;;;34.00;46.40;;;32.95;30.41;100672.00;5029401;28;20040;-58
2021/06/09 10:12:13;;;;;;;5.93;2.97;;;33.60;48.10;;;32.96;30.05;100668.19;5028152;28;20163;-58
2021/06/09 10:14:49;;;;;;;3.38;2.60;;;33.80;47.40;;;33.08;29.71;100668.59;5029514;28;20041;-59
2021/06/09 10:17:18;;;;;;;2.83;2.60;;;33.50;47.90;;;33.32;29.26;100663.16;5028111;28;20114;-57
2021/06/09 10:19:53;;;;;;;2.95;2.58;;;33.80;46.90;;;32.93;30.00;100666.06;5028057;28;20441;-54
2021/06/09 10:22:34;;;;;;;5.25;2.50;;;33.60;47.70;;;32.62;30.23;100657.47;5027919;28;20041;-59
2021/06/09 10:25:09;;;;;;;3.00;2.80;;;33.30;47.90;;;31.64;32.04;100658.59;5027988;28;20484;-57
2021/06/09 10:27:49;;;;;;;7.00;2.72;;;32.70;48.00;;;30.06;34.54;100665.53;5029641;28;20064;-55
2021/06/09 10:30:19;;;;;;;2.38;2.28;;;31.30;50.50;;;29.92;34.37;100663.31;5028962;28;20044;-54
2021/06/09 10:32:46;;;;;;;3.22;2.58;;;30.90;50.80;;;30.38;34.27;100656.06;5027635;28;20057;-58